createdAt,value
2024-04-19T00:00:15.787Z,24.45
2024-04-19T00:01:15.828Z,24.46
2024-04-19T00:02:15.753Z,24.48
2024-04-19T00:03:15.830Z,24.49
2024-04-19T00:04:15.814Z,24.50
2024-04-19T00:05:15.762Z,24.50
2024-04-19T00:06:15.780Z,24.51
2024-04-19T00:07:15.756Z,24.52
2024-04-19T00:08:15.766Z,24.52
2024-04-19T00:09:15.815Z,24.52
2024-04-19T00:10:15.761Z,24.52
2024-04-19T00:11:15.797Z,24.51
2024-04-19T00:12:15.778Z,24.52
2024-04-19T00:13:15.769Z,24.52
2024-04-19T00:14:15.795Z,24.52
2024-04-19T00:15:15.884Z,24.52
2024-04-19T00:16:15.801Z,24.52
2024-04-19T00:17:15.765Z,24.52
2024-04-19T00:18:15.830Z,24.52
2024-04-19T00:19:15.771Z,24.52
2024-04-19T00:20:15.782Z,24.51
2024-04-19T00:21:15.813Z,24.51
2024-04-19T00:22:15.764Z,24.51
2024-04-19T00:23:15.770Z,24.51
2024-04-19T00:24:15.791Z,24.52
2024-04-19T00:25:15.802Z,24.51
2024-04-19T00:26:15.772Z,24.51
2024-04-19T00:27:15.818Z,24.51
2024-04-19T00:28:15.782Z,24.51
2024-04-19T00:29:15.780Z,24.51
2024-04-19T00:30:15.835Z,24.50
2024-04-19T00:31:15.790Z,24.50
2024-04-19T00:32:15.796Z,24.50
2024-04-19T00:33:15.876Z,24.51
2024-04-19T00:34:15.844Z,24.50
2024-04-19T00:35:15.806Z,24.50
2024-04-19T00:36:15.796Z,24.51
2024-04-19T00:37:15.786Z,24.50
2024-04-19T00:38:15.788Z,24.50
2024-04-19T00:39:15.817Z,24.50
2024-04-19T00:40:15.801Z,24.50
2024-04-19T00:41:15.800Z,24.50
2024-04-19T00:42:15.871Z,24.50
2024-04-19T00:43:15.793Z,24.50
2024-04-19T00:44:15.797Z,24.49
2024-04-19T00:45:15.814Z,24.49
2024-04-19T00:46:15.807Z,24.49
2024-04-19T00:47:15.860Z,24.49
2024-04-19T00:48:15.858Z,24.49
2024-04-19T00:49:15.802Z,24.49
2024-04-19T00:50:15.799Z,24.49
2024-04-19T00:51:15.876Z,24.49
2024-04-19T00:52:15.803Z,24.49
2024-04-19T00:53:15.839Z,24.48
2024-04-19T00:54:15.824Z,24.49
2024-04-19T00:55:15.805Z,24.48
2024-04-19T00:56:15.804Z,24.48
2024-04-19T00:57:15.810Z,24.48
2024-04-19T00:58:15.863Z,24.48
2024-04-19T00:59:15.826Z,24.49
2024-04-19T01:00:15.836Z,24.49
2024-04-19T01:01:15.885Z,24.49
2024-04-19T01:02:15.957Z,24.49
2024-04-19T01:03:15.901Z,24.48
2024-04-19T01:04:15.856Z,24.49
2024-04-19T01:05:15.815Z,24.49
2024-04-19T01:06:15.855Z,24.48
2024-04-19T01:07:15.816Z,24.48
2024-04-19T01:08:15.825Z,24.48
2024-04-19T01:09:15.826Z,24.48
2024-04-19T01:10:15.822Z,24.48
2024-04-19T01:11:15.853Z,24.48
2024-04-19T01:12:15.839Z,24.48
2024-04-19T01:13:15.828Z,24.48
2024-04-19T01:14:15.823Z,24.47
2024-04-19T01:15:15.907Z,24.47
2024-04-19T01:16:15.829Z,24.48
2024-04-19T01:17:15.854Z,24.48
2024-04-19T01:18:15.903Z,24.48
2024-04-19T01:19:15.957Z,24.47
2024-04-19T01:20:15.856Z,24.47
2024-04-19T01:21:15.855Z,24.47
2024-04-19T01:22:15.845Z,24.47
2024-04-19T01:23:15.847Z,24.48
2024-04-19T01:24:15.909Z,24.47
2024-04-19T01:25:15.843Z,24.48
2024-04-19T01:26:15.846Z,24.47
2024-04-19T01:27:15.892Z,24.47
2024-04-19T01:28:15.849Z,24.47
2024-04-19T01:29:15.842Z,24.46
2024-04-19T01:30:15.895Z,24.46
2024-04-19T01:31:15.850Z,24.46
2024-04-19T01:32:15.865Z,24.45
2024-04-19T01:33:16.098Z,24.45
2024-04-19T01:34:15.938Z,24.46
2024-04-19T01:35:15.856Z,24.45
2024-04-19T01:36:15.919Z,24.46
2024-04-19T01:37:15.860Z,24.46
2024-04-19T01:38:15.874Z,24.46
2024-04-19T01:39:15.901Z,24.46
2024-04-19T01:40:15.875Z,24.46
2024-04-19T01:41:15.876Z,24.46
2024-04-19T01:42:16.011Z,24.46
2024-04-19T01:43:15.877Z,24.45
2024-04-19T01:44:15.875Z,24.46
2024-04-19T01:45:15.907Z,24.46
2024-04-19T01:46:15.887Z,24.45
2024-04-19T01:47:15.902Z,24.45
2024-04-19T01:48:15.929Z,24.46
2024-04-19T01:49:15.882Z,24.45
2024-04-19T01:50:15.895Z,24.45
2024-04-19T01:51:15.903Z,24.45
2024-04-19T01:52:15.889Z,24.45
2024-04-19T01:53:15.890Z,24.44
2024-04-19T01:54:15.897Z,24.45
2024-04-19T01:55:16.082Z,24.45
2024-04-19T01:56:15.938Z,24.45
2024-04-19T01:57:15.995Z,24.45
2024-04-19T01:58:15.975Z,24.45
2024-04-19T01:59:16.015Z,24.44
2024-04-19T02:00:16.066Z,24.43
2024-04-19T02:01:16.062Z,24.43
2024-04-19T02:02:16.118Z,24.44
2024-04-19T02:03:16.116Z,24.44
2024-04-19T02:04:16.142Z,24.43
2024-04-19T02:05:16.104Z,24.44
2024-04-19T02:06:16.199Z,24.44
2024-04-19T02:07:16.138Z,24.44
2024-04-19T02:08:16.165Z,24.43
2024-04-19T02:09:16.256Z,24.43
2024-04-19T02:10:16.213Z,24.44
2024-04-19T02:11:16.258Z,24.44
2024-04-19T02:12:16.352Z,24.43
2024-04-19T02:13:16.261Z,24.43
2024-04-19T02:14:16.272Z,24.44
2024-04-19T02:15:16.381Z,24.43
2024-04-19T02:16:16.336Z,24.43
2024-04-19T02:17:16.381Z,24.42
2024-04-19T02:18:16.415Z,24.43
2024-04-19T02:19:16.387Z,24.43
2024-04-19T02:20:16.412Z,24.42
2024-04-19T02:21:16.473Z,24.43
2024-04-19T02:22:16.471Z,24.42
2024-04-19T02:23:16.469Z,24.43
2024-04-19T02:24:16.532Z,24.43
2024-04-19T02:25:16.536Z,24.43
2024-04-19T02:26:16.524Z,24.42
2024-04-19T02:27:16.561Z,24.42
2024-04-19T02:28:16.559Z,24.42
2024-04-19T02:29:16.610Z,24.42
2024-04-19T02:30:16.638Z,24.42
2024-04-19T02:31:16.636Z,24.43
2024-04-19T02:32:16.644Z,24.42
2024-04-19T02:33:16.759Z,24.42
2024-04-19T02:34:16.725Z,24.42
2024-04-19T02:35:16.724Z,24.42
2024-04-19T02:36:16.842Z,24.42
2024-04-19T02:37:16.753Z,24.42
2024-04-19T02:38:16.795Z,24.41
2024-04-19T02:39:16.826Z,24.41
2024-04-19T02:40:16.828Z,24.41
2024-04-19T02:41:16.849Z,24.42
2024-04-19T02:42:16.913Z,24.41
2024-04-19T02:43:16.876Z,24.42
2024-04-19T02:44:16.901Z,24.42
2024-04-19T02:45:16.967Z,24.41
2024-04-19T02:46:17.033Z,24.42
2024-04-19T02:47:17.030Z,24.41
2024-04-19T02:48:16.995Z,24.41
2024-04-19T02:49:16.991Z,24.41
2024-04-19T02:50:17.031Z,24.42
2024-04-19T02:51:17.092Z,24.41
2024-04-19T02:52:17.067Z,24.40
2024-04-19T02:53:17.095Z,24.41
2024-04-19T02:54:17.203Z,24.41
2024-04-19T02:55:17.138Z,24.40
2024-04-19T02:56:17.176Z,24.40
2024-04-19T02:57:17.250Z,24.39
2024-04-19T02:58:17.235Z,24.39
2024-04-19T02:59:17.246Z,24.39
2024-04-19T03:00:17.290Z,24.39
2024-04-19T03:01:17.318Z,24.39
2024-04-19T03:02:17.333Z,24.39
2024-04-19T03:03:17.433Z,24.39
2024-04-19T03:04:17.446Z,24.39
2024-04-19T03:05:17.415Z,24.38
2024-04-19T03:06:17.474Z,24.38
2024-04-19T03:07:17.459Z,24.39
2024-04-19T03:08:17.492Z,24.39
2024-04-19T03:09:17.540Z,24.38
2024-04-19T03:10:17.553Z,24.39
2024-04-19T03:11:17.579Z,24.38
2024-04-19T03:12:17.844Z,24.38
2024-04-19T03:13:17.606Z,24.38
2024-04-19T03:14:17.624Z,24.37
2024-04-19T03:15:17.701Z,24.37
2024-04-19T03:16:17.700Z,24.37
2024-04-19T03:17:17.730Z,24.37
2024-04-19T03:18:17.841Z,24.38
2024-04-19T03:19:17.758Z,24.38
2024-04-19T03:20:17.781Z,24.38
2024-04-19T03:21:17.823Z,24.37
2024-04-19T03:22:17.854Z,24.37
2024-04-19T03:23:17.867Z,24.37
2024-04-19T03:24:17.910Z,24.38
2024-04-19T03:25:17.958Z,24.38
2024-04-19T03:26:18.066Z,24.38
2024-04-19T03:27:18.045Z,24.37
2024-04-19T03:28:18.001Z,24.37
2024-04-19T03:29:18.030Z,24.36
2024-04-19T03:30:18.070Z,24.36
2024-04-19T03:31:18.083Z,24.37
2024-04-19T03:32:18.099Z,24.36
2024-04-19T03:33:18.309Z,24.36
2024-04-19T03:34:18.170Z,24.36
2024-04-19T03:35:18.183Z,24.36
2024-04-19T03:36:18.224Z,24.36
2024-04-19T03:37:18.237Z,24.35
2024-04-19T03:38:18.269Z,24.35
2024-04-19T03:39:18.320Z,24.35
2024-04-19T03:40:18.320Z,24.36
2024-04-19T03:41:18.339Z,24.36
2024-04-19T03:42:18.386Z,24.35
2024-04-19T03:43:18.412Z,24.35
2024-04-19T03:44:18.440Z,24.35
2024-04-19T03:45:18.536Z,24.35
2024-04-19T03:46:18.478Z,24.35
2024-04-19T03:47:18.584Z,24.35
2024-04-19T03:48:19.094Z,24.35
2024-04-19T03:49:18.592Z,24.35
2024-04-19T03:50:18.596Z,24.36
2024-04-19T03:51:18.652Z,24.36
2024-04-19T03:52:18.664Z,24.35
2024-04-19T03:53:18.669Z,24.35
2024-04-19T03:54:18.750Z,24.36
2024-04-19T03:55:18.773Z,24.35
2024-04-19T03:56:18.760Z,24.36
2024-04-19T03:57:18.846Z,24.35
2024-04-19T03:58:18.832Z,24.35
2024-04-19T03:59:18.843Z,24.35
2024-04-19T04:00:19.175Z,24.35
2024-04-19T04:01:18.985Z,24.34
2024-04-19T04:02:18.976Z,24.35
2024-04-19T04:03:19.083Z,24.34
2024-04-19T04:04:19.016Z,24.34
2024-04-19T04:05:19.024Z,24.35
2024-04-19T04:06:19.053Z,24.35
2024-04-19T04:07:19.101Z,24.34
2024-04-19T04:08:19.101Z,24.34
2024-04-19T04:09:19.171Z,24.34
2024-04-19T04:10:19.263Z,24.34
2024-04-19T04:11:19.238Z,24.34
2024-04-19T04:12:19.226Z,24.34
2024-04-19T04:13:19.271Z,24.34
2024-04-19T04:14:19.316Z,24.34
2024-04-19T04:15:19.373Z,24.34
2024-04-19T04:16:19.334Z,24.34
2024-04-19T04:17:19.380Z,24.35
2024-04-19T04:18:19.517Z,24.34
2024-04-19T04:19:20.694Z,24.34
2024-04-19T04:20:19.455Z,24.33
2024-04-19T04:21:19.482Z,24.33
2024-04-19T04:22:19.515Z,24.34
2024-04-19T04:23:19.540Z,24.33
2024-04-19T04:24:19.608Z,24.33
2024-04-19T04:25:19.651Z,24.33
2024-04-19T04:26:19.625Z,24.34
2024-04-19T04:27:19.686Z,24.33
2024-04-19T04:28:19.693Z,24.33
2024-04-19T04:29:19.730Z,24.33
2024-04-19T04:30:19.789Z,24.33
2024-04-19T04:31:19.777Z,24.33
2024-04-19T04:32:19.817Z,24.33
2024-04-19T04:33:27.021Z,24.30
2024-04-19T04:34:27.995Z,24.32
2024-04-19T04:35:28.007Z,24.32
2024-04-19T04:36:28.072Z,24.32
2024-04-19T04:37:27.990Z,24.33
2024-04-19T04:38:28.000Z,24.32
2024-04-19T04:39:28.013Z,24.33
2024-04-19T04:40:27.992Z,24.33
2024-04-19T04:41:28.001Z,24.33
2024-04-19T04:42:28.025Z,24.33
2024-04-19T04:43:28.010Z,24.33
2024-04-19T04:44:28.015Z,24.34
2024-04-19T04:45:28.040Z,24.34
2024-04-19T04:46:28.004Z,24.34
2024-04-19T04:47:28.112Z,24.34
2024-04-19T04:48:28.087Z,24.33
2024-04-19T04:49:28.019Z,24.34
2024-04-19T04:50:28.006Z,24.33
2024-04-19T04:51:28.020Z,24.33
2024-04-19T04:52:28.020Z,24.34
2024-04-19T04:53:28.020Z,24.33
2024-04-19T04:54:28.079Z,24.33
2024-04-19T04:55:28.015Z,24.33
2024-04-19T04:56:28.016Z,24.33
2024-04-19T04:57:28.038Z,24.33
2024-04-19T04:58:28.024Z,24.33
2024-04-19T04:59:28.027Z,24.34
2024-04-19T05:00:28.043Z,24.35
2024-04-19T05:01:28.078Z,24.34
2024-04-19T05:02:28.090Z,24.35
2024-04-19T05:03:28.127Z,24.34
2024-04-19T05:04:28.147Z,24.34
2024-04-19T05:05:28.141Z,24.34
2024-04-19T05:06:28.217Z,24.34
2024-04-19T05:07:28.216Z,24.33
2024-04-19T05:08:28.267Z,24.34
2024-04-19T05:09:28.305Z,24.34
2024-04-19T05:10:28.324Z,24.34
2024-04-19T05:11:28.363Z,24.34
2024-04-19T05:12:28.401Z,24.34
2024-04-19T05:13:28.621Z,24.34
2024-04-19T05:14:28.436Z,24.34
2024-04-19T05:15:28.477Z,24.34
2024-04-19T05:16:28.490Z,24.34
2024-04-19T05:17:28.600Z,24.33
2024-04-19T05:18:28.615Z,24.33
2024-04-19T05:19:28.582Z,24.33
2024-04-19T05:20:28.629Z,24.34
2024-04-19T05:21:28.654Z,24.33
2024-04-19T05:22:28.673Z,24.33
2024-04-19T05:23:29.124Z,24.33
2024-04-19T05:24:28.747Z,24.33
2024-04-19T05:25:28.777Z,24.33
2024-04-19T05:26:28.809Z,24.33
2024-04-19T05:27:28.871Z,24.33
2024-04-19T05:28:28.872Z,24.33
2024-04-19T05:29:28.882Z,24.33
2024-04-19T05:30:28.929Z,24.33
2024-04-19T05:31:28.936Z,24.33
2024-04-19T05:32:29.133Z,24.34
2024-04-19T05:33:29.035Z,24.34
2024-04-19T05:34:29.046Z,24.34
2024-04-19T05:35:29.074Z,24.34
2024-04-19T05:36:29.101Z,24.33
2024-04-19T05:37:29.130Z,24.33
2024-04-19T05:38:29.161Z,24.33
2024-04-19T05:39:29.231Z,24.32
2024-04-19T05:40:29.220Z,24.29
2024-04-19T05:41:29.271Z,24.23
2024-04-19T05:42:31.779Z,24.19
2024-04-19T05:43:29.336Z,24.11
2024-04-19T05:44:29.316Z,24.05
2024-04-19T05:45:29.658Z,23.98
2024-04-19T05:46:29.316Z,23.93
2024-04-19T05:47:29.342Z,23.89
2024-04-19T05:48:29.358Z,23.86
2024-04-19T05:49:29.412Z,23.84
2024-04-19T05:50:29.641Z,23.81
2024-04-19T05:51:29.415Z,23.78
2024-04-19T05:52:29.334Z,23.77
2024-04-19T05:53:29.331Z,23.76
2024-04-19T05:54:29.335Z,23.75
2024-04-19T05:55:29.657Z,23.71
2024-04-19T05:56:29.374Z,23.67
2024-04-19T05:57:29.384Z,23.64
2024-04-19T05:58:29.335Z,23.62
2024-04-19T05:59:32.627Z,23.57
2024-04-19T06:00:32.681Z,23.52
2024-04-19T06:01:32.560Z,23.50
2024-04-19T06:02:29.440Z,23.46
2024-04-19T06:03:29.418Z,23.36
2024-04-19T06:04:29.341Z,23.28
2024-04-19T06:05:29.676Z,23.22
2024-04-19T06:06:29.359Z,23.19
2024-04-19T06:07:29.332Z,23.17
2024-04-19T06:08:32.524Z,23.16
2024-04-19T06:09:29.389Z,23.15
2024-04-19T06:10:30.425Z,23.17
2024-04-19T06:11:29.369Z,23.16
2024-04-19T06:12:29.380Z,23.15
2024-04-19T06:13:29.355Z,23.15
2024-04-19T06:14:29.353Z,23.14
2024-04-19T06:15:29.404Z,23.13
2024-04-19T06:16:29.372Z,23.10
2024-04-19T06:17:29.510Z,23.08
2024-04-19T06:18:29.581Z,23.08
2024-04-19T06:19:29.608Z,23.06
2024-04-19T06:20:29.656Z,23.05
2024-04-19T06:21:29.769Z,23.03
2024-04-19T06:22:29.875Z,23.01
2024-04-19T06:23:29.853Z,22.99
2024-04-19T06:24:29.956Z,22.97
2024-04-19T06:25:29.965Z,22.97
2024-04-19T06:26:30.040Z,22.97
2024-04-19T06:27:30.107Z,22.97
2024-04-19T06:28:30.095Z,22.99
2024-04-19T06:29:30.654Z,23.00
2024-04-19T06:30:30.272Z,22.99
2024-04-19T06:31:30.293Z,22.97
2024-04-19T06:32:30.351Z,22.95
2024-04-19T06:33:30.409Z,22.95
2024-04-19T06:34:30.430Z,22.96
2024-04-19T06:35:30.482Z,22.94
2024-04-19T06:36:30.539Z,22.95
2024-04-19T06:37:30.673Z,22.93
2024-04-19T06:38:30.616Z,22.92
2024-04-19T06:39:30.698Z,22.92
2024-04-19T06:40:30.745Z,22.91
2024-04-19T06:41:31.184Z,22.90
2024-04-19T06:42:30.756Z,22.90
2024-04-19T06:43:30.729Z,22.89
2024-04-19T06:44:31.102Z,22.88
2024-04-19T06:45:31.185Z,22.87
2024-04-19T06:46:30.760Z,22.86
2024-04-19T06:47:30.882Z,22.87
2024-04-19T06:48:38.506Z,22.86
2024-04-19T06:49:31.240Z,22.86
2024-04-19T06:50:31.903Z,22.87
2024-04-19T06:51:31.728Z,22.88
2024-04-19T06:52:30.958Z,22.89
2024-04-19T06:53:30.995Z,22.90
2024-04-19T06:54:31.229Z,22.91
2024-04-19T06:55:31.105Z,22.93
2024-04-19T06:56:31.160Z,22.94
2024-04-19T06:57:31.258Z,22.95
2024-04-19T06:58:31.310Z,22.94
2024-04-19T06:59:31.676Z,22.95
2024-04-19T07:01:30.574Z,22.97
2024-04-19T07:02:31.688Z,22.98
2024-04-19T07:03:31.795Z,22.98
2024-04-19T07:04:32.369Z,22.99
2024-04-19T07:05:31.753Z,22.99
2024-04-19T07:06:40.298Z,22.98
2024-04-19T07:07:32.340Z,22.97
2024-04-19T07:08:32.480Z,22.97
2024-04-19T07:09:32.358Z,22.97
2024-04-19T07:10:32.262Z,22.97
2024-04-19T07:11:32.496Z,22.97
2024-04-19T07:12:32.312Z,22.97
2024-04-19T07:13:32.424Z,22.97
2024-04-19T07:14:32.495Z,22.97
2024-04-19T07:15:32.330Z,22.95
2024-04-19T07:16:32.853Z,22.96
2024-04-19T07:17:32.388Z,22.95
2024-04-19T07:18:32.197Z,22.93
2024-04-19T07:19:31.994Z,22.91
2024-04-19T07:20:32.460Z,22.90
2024-04-19T07:21:32.628Z,22.89
2024-04-19T07:22:32.243Z,22.88
2024-04-19T07:23:32.493Z,22.88
2024-04-19T07:24:32.590Z,22.87
2024-04-19T07:25:37.956Z,22.86
2024-04-19T07:26:32.478Z,22.86
2024-04-19T07:27:42.877Z,22.86
2024-04-19T07:28:32.392Z,22.86
2024-04-19T07:29:32.540Z,22.86
2024-04-19T07:30:32.631Z,22.86
2024-04-19T07:31:32.462Z,22.85
2024-04-19T07:32:32.516Z,22.85
2024-04-19T07:33:32.224Z,22.85
2024-04-19T07:34:32.092Z,22.85
2024-04-19T07:35:32.065Z,22.86
2024-04-19T07:36:33.134Z,22.87
2024-04-19T07:37:38.017Z,22.88
2024-04-19T07:38:32.261Z,22.88
2024-04-19T07:39:32.212Z,22.89
2024-04-19T07:40:32.089Z,22.89
2024-04-19T07:41:32.138Z,22.89
2024-04-19T07:42:32.137Z,22.90
2024-04-19T07:43:32.117Z,22.90
2024-04-19T07:44:32.228Z,22.90
2024-04-19T07:45:33.166Z,22.91
2024-04-19T07:46:32.090Z,22.92
2024-04-19T07:47:32.122Z,22.92
2024-04-19T07:48:33.243Z,22.92
2024-04-19T07:49:32.134Z,22.92
2024-04-19T07:50:32.094Z,22.93
2024-04-19T07:51:32.150Z,22.95
2024-04-19T07:52:33.213Z,22.96
2024-04-19T07:53:32.183Z,22.97
2024-04-19T07:54:32.801Z,22.96
2024-04-19T07:55:32.329Z,22.97
2024-04-19T07:56:32.405Z,22.97
2024-04-19T07:57:32.524Z,22.99
2024-04-19T07:58:34.316Z,23.00
2024-04-19T07:59:32.529Z,22.99
2024-04-19T08:00:32.566Z,22.99
2024-04-19T08:01:32.538Z,22.99
2024-04-19T08:02:32.573Z,23.00
2024-04-19T08:03:32.574Z,22.99
2024-04-19T08:04:32.613Z,22.99
2024-04-19T08:05:32.553Z,23.00
2024-04-19T08:06:32.542Z,23.02
2024-04-19T08:07:39.793Z,23.01
2024-04-19T08:08:32.526Z,23.01
2024-04-19T08:09:32.554Z,23.02
2024-04-19T08:10:34.721Z,23.01
2024-04-19T08:11:32.559Z,23.00
2024-04-19T08:12:32.553Z,22.99
2024-04-19T08:13:32.538Z,22.98
2024-04-19T08:14:32.558Z,22.98
2024-04-19T08:15:32.544Z,22.97
2024-04-19T08:16:32.572Z,22.97
2024-04-19T08:17:32.710Z,22.97
2024-04-19T08:18:32.654Z,22.98
2024-04-19T08:19:32.579Z,22.96
2024-04-19T08:20:32.546Z,22.96
2024-04-19T08:21:32.619Z,22.95
2024-04-19T08:22:32.557Z,22.95
2024-04-19T08:23:32.553Z,22.95
2024-04-19T08:24:32.574Z,22.95
2024-04-19T08:25:32.553Z,22.94
2024-04-19T08:26:32.569Z,22.94
2024-04-19T08:27:32.547Z,22.95
2024-04-19T08:28:32.566Z,22.96
2024-04-19T08:29:35.564Z,22.96
2024-04-19T08:30:32.566Z,22.93
2024-04-19T08:31:32.562Z,22.92
2024-04-19T08:32:32.767Z,22.92
2024-04-19T08:33:32.635Z,22.92
2024-04-19T08:34:32.567Z,22.90
2024-04-19T08:35:32.570Z,22.89
2024-04-19T08:36:32.609Z,22.89
2024-04-19T08:37:32.570Z,22.90
2024-04-19T08:38:33.563Z,22.91
2024-04-19T08:39:32.644Z,22.91
2024-04-19T08:40:32.578Z,22.90
2024-04-19T08:41:32.630Z,22.90
2024-04-19T08:42:32.743Z,22.90
2024-04-19T08:43:32.756Z,22.90
2024-04-19T08:44:32.799Z,22.90
2024-04-19T08:45:33.249Z,22.90
2024-04-19T08:46:32.951Z,22.91
2024-04-19T08:47:33.136Z,22.92
2024-04-19T08:48:33.349Z,22.92
2024-04-19T08:49:33.204Z,22.93
2024-04-19T08:50:33.217Z,22.94
2024-04-19T08:51:50.300Z,22.96
2024-04-19T08:52:55.335Z,22.93
2024-04-19T08:53:33.573Z,22.93
2024-04-19T08:54:33.749Z,22.92
2024-04-19T08:55:33.302Z,22.92
2024-04-19T08:56:33.291Z,22.92
2024-04-19T08:57:33.302Z,22.92
2024-04-19T08:58:33.329Z,22.92
2024-04-19T08:59:33.773Z,22.91
2024-04-19T09:00:33.351Z,22.89
2024-04-19T09:01:33.419Z,22.90
2024-04-19T09:02:33.340Z,22.90
2024-04-19T09:03:33.437Z,22.90
2024-04-19T09:04:33.440Z,22.91
2024-04-19T09:05:33.299Z,22.91
2024-04-19T09:06:33.331Z,22.92
2024-04-19T09:07:33.324Z,22.91
2024-04-19T09:08:33.328Z,22.91
2024-04-19T09:09:33.339Z,22.91
2024-04-19T09:10:33.400Z,22.91
2024-04-19T09:11:33.433Z,22.91
2024-04-19T09:12:33.683Z,22.90
2024-04-19T09:13:33.608Z,22.90
2024-04-19T09:14:33.666Z,22.89
2024-04-19T09:15:33.781Z,22.89
2024-04-19T09:16:41.104Z,22.87
2024-04-19T09:17:34.032Z,22.85
2024-04-19T09:18:33.752Z,22.83
2024-04-19T09:19:33.718Z,22.83
2024-04-19T09:20:33.724Z,22.82
2024-04-19T09:21:37.015Z,22.76
2024-04-19T09:22:33.727Z,22.52
2024-04-19T09:23:33.734Z,22.09
2024-04-19T09:24:33.775Z,21.42
2024-04-19T09:25:33.750Z,20.99
2024-04-19T09:26:33.736Z,20.58
2024-04-19T09:27:33.753Z,20.31
2024-04-19T09:28:33.730Z,20.00
2024-04-19T09:29:34.729Z,19.80
2024-04-19T09:30:33.767Z,19.53
2024-04-19T09:31:33.737Z,19.50
2024-04-19T09:32:33.801Z,19.60
2024-04-19T09:33:33.851Z,19.75
2024-04-19T09:34:33.837Z,19.89
2024-04-19T09:35:34.247Z,20.03
2024-04-19T09:36:33.772Z,20.16
2024-04-19T09:37:33.750Z,20.31
2024-04-19T09:38:33.741Z,20.46
2024-04-19T09:39:33.755Z,20.63
2024-04-19T09:40:34.249Z,20.79
2024-04-19T09:41:33.753Z,20.93
2024-04-19T09:42:33.845Z,20.99
2024-04-19T09:43:33.920Z,20.98
2024-04-19T09:44:33.811Z,20.72
2024-04-19T09:45:34.268Z,20.30
2024-04-19T09:46:33.933Z,20.04
2024-04-19T09:47:33.940Z,19.79
2024-04-19T09:48:34.030Z,19.77
2024-04-19T09:49:34.044Z,19.84
2024-04-19T09:50:34.293Z,19.81
2024-04-19T09:51:34.137Z,19.68
2024-04-19T09:52:34.169Z,19.66
2024-04-19T09:53:34.210Z,19.72
2024-04-19T09:54:34.303Z,19.78
2024-04-19T09:55:34.259Z,19.88
2024-04-19T09:56:34.323Z,19.71
2024-04-19T09:57:34.398Z,19.21
2024-04-19T09:58:34.402Z,18.96
2024-04-19T09:59:34.750Z,18.82
2024-04-19T10:00:34.535Z,18.42
2024-04-19T10:01:34.813Z,18.16
2024-04-19T10:02:36.799Z,17.85
2024-04-19T10:03:34.665Z,17.92
2024-04-19T10:04:34.656Z,18.12
2024-04-19T10:05:34.590Z,18.33
2024-04-19T10:06:34.567Z,18.57
2024-04-19T10:07:34.557Z,18.80
2024-04-19T10:08:34.564Z,19.04
2024-04-19T10:09:34.913Z,19.28
2024-04-19T10:10:34.545Z,19.50
2024-04-19T10:11:34.785Z,19.72
2024-04-19T10:12:34.624Z,19.92
2024-04-19T10:13:34.576Z,20.13
2024-04-19T10:14:34.546Z,20.30
2024-04-19T10:15:34.591Z,20.48
2024-04-19T10:16:34.634Z,20.64
2024-04-19T10:17:34.611Z,20.80
2024-04-19T10:18:34.670Z,20.93
2024-04-19T10:19:45.079Z,21.06
2024-04-19T10:20:34.578Z,21.17
2024-04-19T10:21:34.668Z,21.27
2024-04-19T10:22:34.704Z,21.38
2024-04-19T10:23:34.591Z,21.46
2024-04-19T10:24:34.639Z,21.54
2024-04-19T10:25:34.588Z,21.61
2024-04-19T10:26:34.588Z,21.67
2024-04-19T10:27:35.942Z,21.73
2024-04-19T10:28:34.654Z,21.79
2024-04-19T10:29:34.648Z,21.86
2024-04-19T10:30:36.947Z,21.90
2024-04-19T10:31:34.715Z,21.94
2024-04-19T10:32:34.694Z,21.98
2024-04-19T10:33:34.708Z,22.03
2024-04-19T10:34:34.807Z,22.07
2024-04-19T10:35:34.672Z,22.10
2024-04-19T10:36:34.685Z,22.13
2024-04-19T10:37:34.672Z,22.16
2024-04-19T10:38:34.702Z,22.18
2024-04-19T10:39:34.747Z,22.20
2024-04-19T10:40:34.686Z,22.23
2024-04-19T10:41:34.696Z,22.26
2024-04-19T10:42:34.752Z,22.28
2024-04-19T10:43:34.686Z,22.31
2024-04-19T10:44:34.690Z,22.33
2024-04-19T10:45:34.728Z,22.36
2024-04-19T10:46:34.770Z,22.38
2024-04-19T10:47:34.788Z,22.39
2024-04-19T10:48:34.804Z,22.40
2024-04-19T10:49:34.784Z,22.42
2024-04-19T10:50:34.727Z,22.44
2024-04-19T10:51:34.720Z,22.45
2024-04-19T10:52:34.698Z,22.46
2024-04-19T10:53:34.751Z,22.49
2024-04-19T10:54:34.799Z,22.49
2024-04-19T10:55:34.701Z,22.52
2024-04-19T10:56:34.711Z,22.54
2024-04-19T10:57:34.807Z,22.55
2024-04-19T10:58:34.716Z,22.56
2024-04-19T10:59:34.736Z,22.58
2024-04-19T11:00:34.818Z,22.60
2024-04-19T11:01:34.849Z,22.61
2024-04-19T11:02:34.762Z,22.63
2024-04-19T11:03:34.831Z,22.64
2024-04-19T11:04:35.837Z,22.66
2024-04-19T11:05:34.709Z,22.67
2024-04-19T11:06:34.746Z,22.69
2024-04-19T11:07:34.719Z,22.70
2024-04-19T11:08:34.722Z,22.72
2024-04-19T11:09:34.755Z,22.73
2024-04-19T11:10:34.714Z,22.75
2024-04-19T11:11:34.770Z,22.76
2024-04-19T11:12:34.832Z,22.78
2024-04-19T11:13:34.910Z,22.78
2024-04-19T11:14:35.277Z,22.80
2024-04-19T11:15:43.702Z,22.81
2024-04-19T11:16:35.083Z,22.82
2024-04-19T11:17:35.133Z,22.84
2024-04-19T11:18:35.510Z,22.85
2024-04-19T11:19:35.460Z,22.86
2024-04-19T11:20:35.083Z,22.88
2024-04-19T11:21:35.180Z,22.89
2024-04-19T11:22:35.059Z,22.90
2024-04-19T11:23:35.080Z,22.92
2024-04-19T11:24:35.711Z,22.93
2024-04-19T11:25:35.361Z,22.94
2024-04-19T11:26:35.044Z,22.95
2024-04-19T11:27:35.100Z,22.96
2024-04-19T11:28:35.121Z,22.98
2024-04-19T11:29:35.060Z,22.98
2024-04-19T11:30:35.060Z,22.99
2024-04-19T11:31:35.079Z,23.00
2024-04-19T11:32:35.079Z,23.02
2024-04-19T11:33:35.166Z,23.02
2024-04-19T11:34:35.108Z,23.03
2024-04-19T11:35:35.089Z,23.05
2024-04-19T11:36:35.281Z,23.06
2024-04-19T11:37:35.202Z,23.07
2024-04-19T11:38:35.277Z,23.08
2024-04-19T11:39:35.360Z,23.09
2024-04-19T11:40:35.397Z,23.09
2024-04-19T11:41:35.432Z,23.10
2024-04-19T11:42:35.510Z,23.11
2024-04-19T11:43:35.540Z,23.12
2024-04-19T11:44:35.930Z,23.13
2024-04-19T11:45:35.679Z,23.14
2024-04-19T11:46:35.733Z,23.15
2024-04-19T11:47:35.821Z,23.16
2024-04-19T11:48:35.909Z,23.17
2024-04-19T11:49:35.889Z,23.17
2024-04-19T11:50:35.948Z,23.18
2024-04-19T11:51:36.237Z,23.19
2024-04-19T11:52:36.060Z,23.19
2024-04-19T11:53:36.119Z,23.21
2024-04-19T11:54:36.265Z,23.21
2024-04-19T11:55:36.213Z,23.22
2024-04-19T11:56:36.257Z,23.23
2024-04-19T11:57:36.350Z,23.24
2024-04-19T11:58:36.372Z,23.25
2024-04-19T11:59:36.489Z,23.25
2024-04-19T12:00:36.488Z,23.26
2024-04-19T12:01:36.554Z,23.27
2024-04-19T12:02:36.579Z,23.28
2024-04-19T12:03:36.825Z,23.28
2024-04-19T12:04:38.045Z,23.30
2024-04-19T12:05:36.656Z,23.31
2024-04-19T12:06:36.676Z,23.30
2024-04-19T12:07:36.644Z,23.31
2024-04-19T12:08:36.648Z,23.31
2024-04-19T12:09:36.660Z,23.31
2024-04-19T12:10:36.658Z,23.32
2024-04-19T12:11:36.635Z,23.33
2024-04-19T12:13:15.135Z,23.34
2024-04-19T12:14:23.635Z,23.34
2024-04-19T12:15:23.238Z,23.34
2024-04-19T12:16:16.431Z,23.34
2024-04-19T12:16:42.992Z,23.34
2024-04-19T12:17:36.822Z,23.35
2024-04-19T12:18:36.916Z,23.36
2024-04-19T12:19:36.966Z,23.38
2024-04-19T12:20:47.038Z,23.38
2024-04-19T12:21:37.458Z,23.39
2024-04-19T12:22:41.910Z,23.40
2024-04-19T12:23:37.733Z,23.40
2024-04-19T12:24:38.258Z,23.41
2024-04-19T12:25:37.023Z,23.42
2024-04-19T12:26:36.965Z,23.42
2024-04-19T12:27:36.814Z,23.43
2024-04-19T12:28:38.519Z,23.43
2024-04-19T12:29:36.804Z,23.43
2024-04-19T12:30:36.862Z,23.43
2024-04-19T12:31:36.739Z,23.43
2024-04-19T12:32:36.778Z,23.44
2024-04-19T12:33:36.876Z,23.44
2024-04-19T12:34:37.254Z,23.45
2024-04-19T12:35:36.830Z,23.45
2024-04-19T12:36:36.791Z,23.45
2024-04-19T12:37:36.705Z,23.45
2024-04-19T12:38:36.711Z,23.45
2024-04-19T12:39:36.736Z,23.45
2024-04-19T12:40:39.115Z,23.45
2024-04-19T12:41:36.712Z,23.45
2024-04-19T12:42:36.785Z,23.46
2024-04-19T12:43:36.725Z,23.45
2024-04-19T12:44:36.775Z,23.45
2024-04-19T12:45:36.734Z,23.45
2024-04-19T12:46:38.133Z,23.44
2024-04-19T12:47:36.781Z,23.45
2024-04-19T12:48:36.831Z,23.45
2024-04-19T12:49:36.728Z,23.45
2024-04-19T12:50:36.731Z,23.45
2024-04-19T12:51:36.751Z,23.45
2024-04-19T12:52:37.625Z,23.45
2024-04-19T12:53:36.730Z,23.44